createdAt,value
2022-10-06T00:00:17.758Z,99222.81
2022-10-06T00:01:22.271Z,99211.75
2022-10-06T00:02:25.229Z,99220.94
2022-10-06T00:03:31.350Z,99218.59
2022-10-06T00:04:34.105Z,99224.09
2022-10-06T00:05:36.880Z,99215.19
2022-10-06T00:06:39.790Z,99214.19
2022-10-06T00:07:42.520Z,99223.06
2022-10-06T00:08:47.269Z,99215.72
2022-10-06T00:09:50.223Z,99222.03
2022-10-06T00:10:57.123Z,99223.69
2022-10-06T00:12:00.683Z,99218.16
2022-10-06T00:13:03.682Z,99215.50
2022-10-06T00:14:06.593Z,99208.63
2022-10-06T00:15:10.765Z,99216.28
2022-10-06T00:16:19.037Z,99211.84
2022-10-06T00:17:21.822Z,99218.44
2022-10-06T00:18:26.095Z,99216.31
2022-10-06T00:19:29.308Z,99216.81
2022-10-06T00:20:32.562Z,99219.47
2022-10-06T00:21:35.454Z,99207.91
2022-10-06T00:22:40.918Z,99206.88
2022-10-06T00:23:43.665Z,99211.59
2022-10-06T00:24:46.491Z,99209.78
2022-10-06T00:25:49.255Z,99208.47
2022-10-06T00:26:52.080Z,99204.81
2022-10-06T00:27:55.361Z,99213.22
2022-10-06T00:28:58.849Z,99213.97
2022-10-06T00:30:01.752Z,99213.72
2022-10-06T00:31:04.698Z,99214.19
2022-10-06T00:32:07.866Z,99207.75
2022-10-06T00:33:13.404Z,99213.19
2022-10-06T00:34:16.022Z,99210.34
2022-10-06T00:35:19.480Z,99210.56
2022-10-06T00:36:22.395Z,99205.06
2022-10-06T00:37:26.793Z,99208.25
2022-10-06T00:38:29.995Z,99211.41
2022-10-06T00:39:32.825Z,99203.88
2022-10-06T00:40:35.660Z,99214.38
2022-10-06T00:41:39.506Z,99208.13
2022-10-06T00:42:55.134Z,99198.72
2022-10-06T00:43:59.009Z,99206.53
2022-10-06T00:45:06.317Z,99202.59
2022-10-06T00:46:13.925Z,99210.44
2022-10-06T00:47:17.933Z,99202.56
2022-10-06T00:48:27.488Z,99208.66
2022-10-06T00:49:37.368Z,99210.69
2022-10-06T00:50:41.516Z,99209.59
2022-10-06T00:52:00.974Z,99211.72
2022-10-06T00:53:06.066Z,99208.50
2022-10-06T00:54:09.293Z,99206.16
2022-10-06T00:55:12.352Z,99201.19
2022-10-06T00:56:15.524Z,99204.66
2022-10-06T00:57:20.849Z,99192.87
2022-10-06T00:58:24.487Z,99209.66
2022-10-06T00:59:27.435Z,99200.00
2022-10-06T01:00:30.254Z,99209.69
2022-10-06T01:01:34.361Z,99209.72
2022-10-06T01:02:52.639Z,99211.00
2022-10-06T01:04:01.125Z,99204.44
2022-10-06T01:05:05.996Z,99208.91
2022-10-06T01:06:09.303Z,99206.81
2022-10-06T01:07:12.425Z,99206.28
2022-10-06T01:08:16.160Z,99208.84
2022-10-06T01:09:24.020Z,99207.25
2022-10-06T01:10:26.811Z,99202.50
2022-10-06T01:11:31.001Z,99205.97
2022-10-06T01:12:34.864Z,99202.66
2022-10-06T01:13:37.694Z,99204.75
2022-10-06T01:14:41.608Z,99203.41
2022-10-06T01:15:59.829Z,99206.34
2022-10-06T01:17:32.578Z,99204.56
2022-10-06T01:18:39.940Z,99199.53
2022-10-06T01:20:00.405Z,99205.63
2022-10-06T01:21:12.221Z,99208.50
2022-10-06T01:22:16.587Z,99202.19
2022-10-06T01:23:19.742Z,99207.66
2022-10-06T01:24:23.227Z,99204.81
2022-10-06T01:25:26.585Z,99212.69
2022-10-06T01:26:32.550Z,99215.28
2022-10-06T01:27:38.254Z,99211.41
2022-10-06T01:28:41.104Z,99211.91
2022-10-06T01:29:44.152Z,99210.34
2022-10-06T01:30:53.169Z,99210.56
2022-10-06T01:32:01.973Z,99210.81
2022-10-06T01:33:05.194Z,99212.66
2022-10-06T01:34:07.945Z,99212.91
2022-10-06T01:35:11.037Z,99210.56
2022-10-06T01:36:13.845Z,99217.13
2022-10-06T01:37:16.567Z,99218.69
2022-10-06T01:38:20.497Z,99211.34
2022-10-06T01:39:23.327Z,99213.97
2022-10-06T01:40:29.357Z,99215.06
2022-10-06T01:41:34.249Z,99213.50
2022-10-06T01:42:37.338Z,99222.66
2022-10-06T01:43:40.039Z,99222.41
2022-10-06T01:44:42.960Z,99229.50
2022-10-06T01:45:45.805Z,99225.06
2022-10-06T01:46:48.670Z,99224.78
2022-10-06T01:47:51.550Z,99216.69
2022-10-06T01:48:55.053Z,99220.88
2022-10-06T01:49:58.062Z,99224.81
2022-10-06T01:51:00.883Z,99226.91
2022-10-06T01:52:04.054Z,99223.50
2022-10-06T01:53:06.778Z,99227.19
2022-10-06T01:54:09.654Z,99224.78
2022-10-06T01:55:12.964Z,99229.25
2022-10-06T01:56:15.849Z,99230.03
2022-10-06T01:57:19.019Z,99234.75
2022-10-06T01:58:21.959Z,99235.00
2022-10-06T01:59:24.989Z,99224.78
2022-10-06T02:00:27.868Z,99228.19
2022-10-06T02:01:30.726Z,99229.25
2022-10-06T02:02:33.610Z,99228.47
2022-10-06T02:03:38.065Z,99226.09
2022-10-06T02:04:40.879Z,99224.00
2022-10-06T02:05:43.564Z,99221.91
2022-10-06T02:06:46.673Z,99221.41
2022-10-06T02:07:49.574Z,99224.00
2022-10-06T02:08:52.283Z,99226.34
2022-10-06T02:09:55.078Z,99226.06
2022-10-06T02:10:57.866Z,99231.56
2022-10-06T02:12:00.983Z,99227.12
2022-10-06T02:13:05.116Z,99229.75
2022-10-06T02:14:07.938Z,99221.38
2022-10-06T02:15:11.347Z,99229.72
2022-10-06T02:16:14.366Z,99226.59
2022-10-06T02:17:17.106Z,99233.41
2022-10-06T02:18:20.328Z,99231.28
2022-10-06T02:19:23.376Z,99233.91
2022-10-06T02:20:26.168Z,99229.19
2022-10-06T02:21:28.892Z,99236.78
2022-10-06T02:22:31.758Z,99233.16
2022-10-06T02:23:34.534Z,99228.66
2022-10-06T02:24:37.350Z,99228.69
2022-10-06T02:25:40.107Z,99231.81
2022-10-06T02:26:42.876Z,99244.38
2022-10-06T02:27:45.615Z,99239.09
2022-10-06T02:28:50.298Z,99239.13
2022-10-06T02:29:53.132Z,99235.97
2022-10-06T02:31:03.858Z,99238.34
2022-10-06T02:32:06.814Z,99236.25
2022-10-06T02:33:09.611Z,99240.66
2022-10-06T02:34:12.709Z,99244.91
2022-10-06T02:35:15.502Z,99235.47
2022-10-06T02:36:18.533Z,99240.44
2022-10-06T02:37:21.977Z,99231.53
2022-10-06T02:38:25.281Z,99236.22
2022-10-06T02:39:28.591Z,99232.84
2022-10-06T02:40:31.351Z,99237.03
2022-10-06T02:41:34.298Z,99231.81
2022-10-06T02:42:38.037Z,99238.31
2022-10-06T02:43:40.927Z,99233.31
2022-10-06T02:44:43.722Z,99235.69
2022-10-06T02:46:07.288Z,99231.19
2022-10-06T02:47:15.049Z,99231.44
2022-10-06T02:48:17.945Z,99227.25
2022-10-06T02:49:20.719Z,99223.34
2022-10-06T02:50:23.918Z,99226.19
2022-10-06T02:51:26.748Z,99228.28
2022-10-06T02:52:34.620Z,99228.84
2022-10-06T02:53:37.937Z,99225.97
2022-10-06T02:54:40.825Z,99224.91
2022-10-06T02:55:43.613Z,99227.25
2022-10-06T02:56:46.785Z,99225.94
2022-10-06T02:57:49.676Z,99228.25
2022-10-06T02:58:53.900Z,99232.66
2022-10-06T02:59:56.874Z,99222.22
2022-10-06T03:01:26.947Z,99226.72
2022-10-06T03:02:31.027Z,99227.03
2022-10-06T03:03:37.816Z,99224.94
2022-10-06T03:04:40.650Z,99220.69
2022-10-06T03:05:43.416Z,99228.81
2022-10-06T03:06:46.413Z,99228.88
2022-10-06T03:07:49.183Z,99224.88
2022-10-06T03:08:58.875Z,99222.00
2022-10-06T03:10:01.663Z,99228.28
2022-10-06T03:11:07.017Z,99229.34
2022-10-06T03:12:09.894Z,99227.00
2022-10-06T03:13:12.652Z,99234.09
2022-10-06T03:14:19.250Z,99234.59
2022-10-06T03:15:24.892Z,99231.97
2022-10-06T03:16:33.786Z,99228.84
2022-10-06T03:17:36.772Z,99231.97
2022-10-06T03:18:40.724Z,99231.44
2022-10-06T03:19:44.034Z,99228.84
2022-10-06T03:20:50.114Z,99239.03
2022-10-06T03:21:52.819Z,99234.31
2022-10-06T03:22:55.891Z,99232.75
2022-10-06T03:23:59.377Z,99233.78
2022-10-06T03:25:02.392Z,99238.00
2022-10-06T03:26:05.533Z,99240.56
2022-10-06T03:27:08.293Z,99236.13
2022-10-06T03:28:10.997Z,99232.50
2022-10-06T03:29:14.329Z,99236.44
2022-10-06T03:30:18.289Z,99243.72
2022-10-06T03:31:21.552Z,99238.53
2022-10-06T03:32:24.370Z,99238.25
2022-10-06T03:33:27.129Z,99234.09
2022-10-06T03:34:29.843Z,99237.44
2022-10-06T03:35:32.636Z,99235.66
2022-10-06T03:36:36.832Z,99243.53
2022-10-06T03:37:39.627Z,99235.66
2022-10-06T03:38:43.347Z,99242.19
2022-10-06T03:39:46.181Z,99243.00
2022-10-06T03:40:49.069Z,99241.41
2022-10-06T03:41:51.846Z,99232.72
2022-10-06T03:42:54.592Z,99241.38
2022-10-06T03:43:59.335Z,99241.66
2022-10-06T03:45:02.091Z,99240.06
2022-10-06T03:46:06.919Z,99233.00
2022-10-06T03:47:12.151Z,99235.88
2022-10-06T03:48:20.934Z,99238.00
2022-10-06T03:49:23.916Z,99233.31
2022-10-06T03:50:26.709Z,99242.97
2022-10-06T03:51:32.254Z,99236.94
2022-10-06T03:52:35.033Z,99238.50
2022-10-06T03:53:38.210Z,99231.72
2022-10-06T03:54:40.931Z,99233.56
2022-10-06T03:55:43.675Z,99230.09
2022-10-06T03:56:46.668Z,99234.78
2022-10-06T03:57:49.747Z,99229.88
2022-10-06T03:58:55.254Z,99238.25
2022-10-06T04:00:00.134Z,99234.56
2022-10-06T04:01:15.208Z,99244.50
2022-10-06T04:02:18.082Z,99236.34
2022-10-06T04:03:20.881Z,99241.81
2022-10-06T04:04:23.650Z,99240.56
2022-10-06T04:05:26.416Z,99234.75
2022-10-06T04:06:31.344Z,99239.47
2022-10-06T04:07:34.198Z,99238.97
2022-10-06T04:08:37.153Z,99240.53
2022-10-06T04:09:40.098Z,99241.06
2022-10-06T04:10:42.775Z,99235.56
2022-10-06T04:11:45.870Z,99238.47
2022-10-06T04:12:48.584Z,99243.72
2022-10-06T04:14:08.669Z,99246.34
2022-10-06T04:15:11.391Z,99238.25
2022-10-06T04:16:16.302Z,99238.25
2022-10-06T04:17:19.202Z,99244.28
2022-10-06T04:18:22.488Z,99232.22
2022-10-06T04:19:25.586Z,99243.47
2022-10-06T04:20:28.625Z,99243.41
2022-10-06T04:21:33.968Z,99246.31
2022-10-06T04:22:36.685Z,99247.13
2022-10-06T04:23:39.670Z,99247.31
2022-10-06T04:24:42.370Z,99246.28
2022-10-06T04:25:45.133Z,99244.91
2022-10-06T04:26:49.202Z,99246.47
2022-10-06T04:27:52.040Z,99248.53
2022-10-06T04:28:54.822Z,99248.31
2022-10-06T04:29:58.096Z,99248.31
2022-10-06T04:31:01.991Z,99249.88
2022-10-06T04:32:04.693Z,99248.59
2022-10-06T04:33:07.594Z,99252.53
2022-10-06T04:34:16.091Z,99253.06
2022-10-06T04:35:19.531Z,99248.34
2022-10-06T04:36:27.879Z,99255.44
2022-10-06T04:37:30.659Z,99248.09
2022-10-06T04:38:34.718Z,99243.34
2022-10-06T04:39:37.984Z,99246.97
2022-10-06T04:40:40.685Z,99247.06
2022-10-06T04:41:47.494Z,99246.25
2022-10-06T04:42:50.633Z,99239.75
2022-10-06T04:43:54.677Z,99237.66
2022-10-06T04:44:57.430Z,99242.31
2022-10-06T04:46:06.435Z,99240.66
2022-10-06T04:47:21.483Z,99241.75
2022-10-06T04:48:28.449Z,99246.00
2022-10-06T04:49:31.910Z,99236.81
2022-10-06T04:50:34.708Z,99243.59
2022-10-06T04:51:37.451Z,99244.34
2022-10-06T04:52:40.403Z,99233.38
2022-10-06T04:53:46.513Z,99246.72
2022-10-06T04:54:49.290Z,99245.16
2022-10-06T04:56:33.125Z,99244.38
2022-10-06T04:57:35.870Z,99242.50
2022-10-06T04:58:41.916Z,99234.62
2022-10-06T05:00:07.823Z,99238.00
2022-10-06T05:01:19.175Z,99239.37
2022-10-06T05:02:22.536Z,99241.53
2022-10-06T05:03:25.543Z,99238.37
2022-10-06T05:04:28.245Z,99245.22
2022-10-06T05:05:31.459Z,99246.22
2022-10-06T05:06:40.012Z,99243.38
2022-10-06T05:07:46.000Z,99244.13
2022-10-06T05:08:54.004Z,99239.22
2022-10-06T05:09:57.596Z,99243.38
2022-10-06T05:11:04.689Z,99239.75
2022-10-06T05:12:09.232Z,99249.13
2022-10-06T05:13:14.265Z,99247.25
2022-10-06T05:14:16.945Z,99242.00
2022-10-06T05:15:19.745Z,99244.63
2022-10-06T05:16:23.942Z,99247.56
2022-10-06T05:17:26.811Z,99249.62
2022-10-06T05:18:31.579Z,99243.34
2022-10-06T05:19:34.625Z,99241.28
2022-10-06T05:20:37.329Z,99243.69
2022-10-06T05:21:41.211Z,99242.66
2022-10-06T05:22:43.914Z,99241.88
2022-10-06T05:23:46.802Z,99243.97
2022-10-06T05:24:53.947Z,99251.03
2022-10-06T05:25:58.097Z,99244.75
2022-10-06T05:27:04.009Z,99245.00
2022-10-06T05:28:06.827Z,99249.13
2022-10-06T05:29:13.242Z,99255.09
2022-10-06T05:30:16.102Z,99251.22
2022-10-06T05:31:29.421Z,99251.78
2022-10-06T05:32:35.888Z,99254.66
2022-10-06T05:33:39.744Z,99251.75
2022-10-06T05:34:42.521Z,99249.13
2022-10-06T05:35:52.943Z,99245.47
2022-10-06T05:36:55.956Z,99246.03
2022-10-06T05:37:58.785Z,99247.91
2022-10-06T05:39:02.226Z,99257.56
2022-10-06T05:40:05.409Z,99255.72
2022-10-06T05:41:21.233Z,99253.63
2022-10-06T05:42:28.758Z,99253.66
2022-10-06T05:43:33.773Z,99254.72
2022-10-06T05:44:36.467Z,99247.97
2022-10-06T05:45:39.305Z,99254.28
2022-10-06T05:46:42.138Z,99251.16
2022-10-06T05:47:44.916Z,99255.38
2022-10-06T05:48:53.207Z,99257.13
2022-10-06T05:49:55.978Z,99257.41
2022-10-06T05:51:04.927Z,99261.84
2022-10-06T05:52:07.777Z,99266.06
2022-10-06T05:53:10.688Z,99253.50
2022-10-06T05:54:14.750Z,99261.87
2022-10-06T05:55:17.553Z,99255.66
2022-10-06T05:56:22.925Z,99256.13
2022-10-06T05:57:25.692Z,99260.94
2022-10-06T05:58:28.712Z,99266.97
2022-10-06T05:59:31.850Z,99258.06
2022-10-06T06:00:34.860Z,99264.88
2022-10-06T06:01:42.693Z,99256.44
2022-10-06T06:02:45.539Z,99259.03
2022-10-06T06:03:54.542Z,99258.97
2022-10-06T06:04:57.232Z,99263.72
2022-10-06T06:05:59.975Z,99260.81
2022-10-06T06:07:02.691Z,99269.44
2022-10-06T06:08:05.397Z,99261.28
2022-10-06T06:09:13.530Z,99267.06
2022-10-06T06:10:16.389Z,99269.22
2022-10-06T06:11:19.756Z,99267.13
2022-10-06T06:12:22.666Z,99268.16
2022-10-06T06:13:25.371Z,99273.91
2022-10-06T06:14:46.698Z,99267.91
2022-10-06T06:16:01.939Z,99272.09
2022-10-06T06:17:05.637Z,99274.47
2022-10-06T06:18:08.719Z,99276.28
2022-10-06T06:19:13.588Z,99278.19
2022-10-06T06:20:16.377Z,99284.22
2022-10-06T06:21:19.138Z,99288.09
2022-10-06T06:22:23.286Z,99292.03
2022-10-06T06:23:32.779Z,99296.50
2022-10-06T06:24:35.638Z,99292.56
2022-10-06T06:25:38.467Z,99295.72
2022-10-06T06:26:41.982Z,99302.28
2022-10-06T06:27:45.681Z,99299.37
2022-10-06T06:28:48.841Z,99295.19
2022-10-06T06:29:51.798Z,99303.56
2022-10-06T06:31:19.865Z,99309.59
2022-10-06T06:32:23.360Z,99309.59
2022-10-06T06:33:26.567Z,99303.78
2022-10-06T06:34:30.349Z,99306.63
2022-10-06T06:35:34.541Z,99314.22
2022-10-06T06:36:41.283Z,99313.69
2022-10-06T06:37:45.273Z,99320.81
2022-10-06T06:41:14.750Z,99318.16
2022-10-06T06:42:17.505Z,99316.59
2022-10-06T06:43:20.289Z,99323.91
2022-10-06T06:44:23.879Z,99320.75
2022-10-06T06:45:26.770Z,99320.16
2022-10-06T06:46:32.416Z,99318.38
2022-10-06T06:47:35.310Z,99321.53
2022-10-06T06:48:38.936Z,99325.69
2022-10-06T06:49:43.259Z,99319.91
2022-10-06T06:50:46.096Z,99319.84
2022-10-06T06:51:50.124Z,99321.97
2022-10-06T06:52:54.385Z,99328.25
2022-10-06T06:53:59.721Z,99324.84
2022-10-06T06:55:02.441Z,99324.81
2022-10-06T06:56:05.948Z,99325.88
2022-10-06T06:57:09.036Z,99322.78
2022-10-06T06:58:12.745Z,99330.69
2022-10-06T06:59:15.959Z,99331.31
2022-10-06T07:00:19.259Z,99330.97
2022-10-06T07:01:23.224Z,99321.44
2022-10-06T07:02:29.932Z,99325.78
2022-10-06T07:03:56.139Z,99334.09
2022-10-06T07:04:55.578Z,99329.47
2022-10-06T07:06:09.708Z,99336.03
2022-10-06T07:07:12.675Z,99332.25
2022-10-06T07:08:20.813Z,99339.41
2022-10-06T07:09:26.306Z,99346.00
2022-10-06T07:10:30.609Z,99343.50
2022-10-06T07:11:36.422Z,99350.50
2022-10-06T07:12:39.208Z,99348.28
2022-10-06T07:13:42.868Z,99349.94
2022-10-06T07:15:04.272Z,99350.69
2022-10-06T09:34:56.113Z,99401.41
2022-10-06T09:36:10.029Z,99401.41
2022-10-06T09:37:13.901Z,99399.87
2022-10-06T09:38:16.550Z,99395.50
2022-10-06T09:39:27.002Z,99396.19
2022-10-06T09:40:38.526Z,99398.13
2022-10-06T09:41:45.845Z,99405.50
2022-10-06T09:42:48.727Z,99397.75
2022-10-06T09:43:57.885Z,99400.56
2022-10-06T09:45:25.076Z,99403.44
2022-10-06T09:46:33.406Z,99412.66
2022-10-06T09:47:42.354Z,99398.22
2022-10-06T09:48:45.167Z,99403.91
2022-10-06T09:50:12.349Z,99408.75
2022-10-06T09:51:18.391Z,99404.13
2022-10-06T09:52:20.924Z,99398.09
2022-10-06T09:53:23.565Z,99398.09
2022-10-06T09:54:28.809Z,99404.16
2022-10-06T09:55:41.785Z,99406.78
2022-10-06T09:56:47.044Z,99405.56
2022-10-06T09:57:52.717Z,99406.09
2022-10-06T09:58:57.796Z,99408.41
2022-10-06T10:00:01.867Z,99411.22
2022-10-06T10:01:08.466Z,99409.66
2022-10-06T10:02:37.164Z,99408.56
2022-10-06T10:04:20.964Z,99411.84
2022-10-06T10:05:25.245Z,99422.75
2022-10-06T10:06:30.468Z,99408.44
2022-10-06T10:07:36.445Z,99403.97
2022-10-06T10:08:39.125Z,99411.59
2022-10-06T10:09:42.757Z,99407.13
2022-10-06T10:10:45.419Z,99404.09
2022-10-06T10:12:28.910Z,99403.66
2022-10-06T10:13:42.996Z,99400.13
2022-10-06T10:14:45.768Z,99404.44
2022-10-06T10:16:00.637Z,99399.75
2022-10-06T10:17:48.306Z,99403.00
2022-10-06T10:18:52.195Z,99403.53
2022-10-06T10:19:55.875Z,99401.50
2022-10-06T10:21:08.488Z,99409.06
2022-10-06T10:22:27.567Z,99403.44
2022-10-06T10:23:33.875Z,99401.97
2022-10-06T10:24:56.716Z,99400.03
2022-10-06T10:26:14.295Z,99400.69
2022-10-06T10:27:26.957Z,99408.09
2022-10-06T10:28:42.832Z,99398.72
2022-10-06T10:30:09.566Z,99403.88
2022-10-06T10:31:31.565Z,99403.44
2022-10-06T10:32:44.095Z,99403.38
2022-10-06T10:34:12.143Z,99396.91
2022-10-06T10:35:23.354Z,99390.47
2022-10-06T10:36:36.576Z,99395.50
2022-10-06T10:37:59.281Z,99391.09
2022-10-06T10:39:04.665Z,99392.47
2022-10-06T10:40:11.798Z,99393.88
2022-10-06T10:41:23.015Z,99389.38
2022-10-06T10:42:35.364Z,99396.56
2022-10-06T10:44:08.805Z,99396.66
2022-10-06T10:45:34.217Z,99398.09
2022-10-06T10:46:49.818Z,99396.31
2022-10-06T10:47:54.377Z,99402.91
2022-10-06T10:49:23.108Z,99405.03
2022-10-06T10:50:28.606Z,99403.75
2022-10-06T10:51:50.225Z,99396.47
2022-10-06T10:52:58.071Z,99403.34
2022-10-06T10:54:08.216Z,99398.87
2022-10-06T10:55:18.786Z,99402.94
2022-10-06T10:56:24.328Z,99401.13
2022-10-06T10:57:36.066Z,99401.19
2022-10-06T10:58:41.886Z,99398.94
2022-10-06T10:59:47.527Z,99391.94
2022-10-06T11:00:56.421Z,99405.00
2022-10-06T11:02:13.910Z,99399.78
2022-10-06T11:03:16.565Z,99397.06
2022-10-06T11:04:20.586Z,99400.56
2022-10-06T11:05:44.155Z,99399.50
2022-10-06T11:07:01.520Z,99396.50
2022-10-06T11:08:16.965Z,99399.25
2022-10-06T11:09:21.366Z,99394.34
2022-10-06T11:10:29.525Z,99395.28
2022-10-06T11:12:09.757Z,99394.22
2022-10-06T11:13:48.326Z,99390.03
2022-10-06T11:14:56.325Z,99389.56
2022-10-06T11:16:08.986Z,99396.19
2022-10-06T11:17:19.327Z,99385.75
2022-10-06T11:19:12.585Z,99388.75
2022-10-06T11:20:20.926Z,99391.00
2022-10-06T11:21:43.113Z,99384.56
2022-10-06T11:23:09.037Z,99396.72
2022-10-06T11:24:32.365Z,99388.66
2022-10-06T11:25:53.806Z,99388.34
2022-10-06T11:27:17.937Z,99389.25
2022-10-06T11:28:39.897Z,99391.31
2022-10-06T11:29:51.425Z,99382.19
2022-10-06T11:31:26.123Z,99389.34
2022-10-06T11:32:46.595Z,99388.53
2022-10-06T11:33:53.235Z,99390.09
2022-10-06T11:34:56.365Z,99391.87
2022-10-06T11:36:00.523Z,99389.53
2022-10-06T11:37:12.122Z,99378.63
2022-10-06T11:38:46.007Z,99382.59
2022-10-06T11:40:06.145Z,99383.34
2022-10-06T11:41:18.738Z,99381.13
2022-10-06T11:42:52.066Z,99372.69
2022-10-06T11:44:09.455Z,99371.31
2022-10-06T11:45:16.465Z,99370.69
2022-10-06T11:46:49.630Z,99372.28
2022-10-06T11:48:31.116Z,99364.94
2022-10-06T11:49:53.497Z,99370.47
2022-10-06T11:51:21.171Z,99367.87
2022-10-06T11:52:23.826Z,99369.84
2022-10-06T11:53:31.946Z,99368.66
2022-10-06T11:54:40.392Z,99375.25
2022-10-06T11:55:43.066Z,99376.69
2022-10-06T11:56:45.697Z,99368.56
2022-10-06T11:58:40.920Z,99371.75
2022-10-06T11:59:40.815Z,99372.41
2022-10-06T12:00:45.530Z,99375.47
2022-10-06T12:01:52.819Z,99372.00
2022-10-06T12:02:55.675Z,99373.25
2022-10-06T12:04:10.858Z,99371.06
2022-10-06T12:05:45.876Z,99371.16
2022-10-06T12:06:43.134Z,99367.31
2022-10-06T12:07:54.806Z,99372.12
2022-10-06T12:08:58.545Z,99365.72
2022-10-06T12:10:29.123Z,99366.75
2022-10-06T12:11:42.896Z,99360.47
2022-10-06T12:13:05.742Z,99357.56
2022-10-06T12:16:07.043Z,99356.94
2022-10-06T12:17:23.727Z,99348.84
2022-10-06T12:18:45.174Z,99362.03
2022-10-06T12:20:06.598Z,99364.22
2022-10-06T12:22:04.680Z,99361.09
2022-10-06T12:23:10.082Z,99358.28
2022-10-06T12:24:24.816Z,99365.06
2022-10-06T12:25:43.944Z,99358.56
2022-10-06T12:26:49.349Z,99360.84
2022-10-06T12:28:13.478Z,99361.09
2022-10-06T12:29:34.701Z,99349.16
2022-10-06T12:30:51.460Z,99364.34
2022-10-06T12:32:19.497Z,99352.69
2022-10-06T12:33:40.038Z,99347.97
2022-10-06T12:35:06.301Z,99353.19
2022-10-06T12:36:19.254Z,99354.84
2022-10-06T12:37:53.014Z,99357.06
2022-10-06T12:39:05.366Z,99348.69
2022-10-06T12:40:42.264Z,99349.06
2022-10-06T12:42:23.483Z,99351.75
2022-10-06T12:43:29.912Z,99352.06
2022-10-06T12:44:38.484Z,99349.81
2022-10-06T12:45:46.391Z,99344.97
2022-10-06T12:46:51.384Z,99346.97
2022-10-06T12:47:55.017Z,99345.28
2022-10-06T12:49:26.772Z,99338.16
2022-10-06T12:50:30.504Z,99343.66
2022-10-06T12:51:35.270Z,99333.13
2022-10-06T12:52:49.926Z,99344.94
2022-10-06T12:53:58.295Z,99343.53
2022-10-06T12:55:17.754Z,99335.09
2022-10-06T12:56:28.566Z,99337.09
2022-10-06T12:57:33.741Z,99338.78
2022-10-06T12:58:36.776Z,99339.16
2022-10-06T12:59:40.968Z,99340.38
2022-10-06T13:00:44.713Z,99336.75
2022-10-06T13:01:50.795Z,99336.63
2022-10-06T13:02:57.960Z,99328.22
2022-10-06T13:04:00.565Z,99334.12
2022-10-06T13:05:11.525Z,99328.84
2022-10-06T13:06:14.271Z,99332.72
2022-10-06T13:07:21.983Z,99330.91
2022-10-06T13:08:28.473Z,99328.09
2022-10-06T13:09:31.326Z,99331.69
2022-10-06T13:10:34.273Z,99333.19
2022-10-06T13:11:37.068Z,99326.31
2022-10-06T13:12:41.695Z,99330.97
2022-10-06T13:13:59.488Z,99323.75
2022-10-06T13:15:11.189Z,99330.91
2022-10-06T13:16:15.451Z,99330.41
2022-10-06T13:17:18.270Z,99335.41
2022-10-06T13:18:23.430Z,99329.41
2022-10-06T13:19:28.971Z,99331.16
2022-10-06T13:20:39.775Z,99328.63
2022-10-06T13:21:42.627Z,99326.41
2022-10-06T13:22:45.327Z,99331.31
2022-10-06T13:23:48.566Z,99321.53
2022-10-06T13:24:59.331Z,99314.50
2022-10-06T13:26:04.321Z,99315.66
2022-10-06T13:27:07.178Z,99321.28
2022-10-06T13:28:21.206Z,99323.22
2022-10-06T13:29:26.190Z,99325.81
2022-10-06T13:30:29.114Z,99324.81
2022-10-06T13:31:34.856Z,99325.41
2022-10-06T13:32:38.877Z,99314.66
2022-10-06T13:33:44.282Z,99323.13
2022-10-06T13:34:46.962Z,99325.41
2022-10-06T13:35:53.110Z,99323.94
2022-10-06T13:36:56.493Z,99327.75
2022-10-06T13:38:02.561Z,99324.41
2022-10-06T13:39:17.512Z,99325.28
2022-10-06T13:40:44.252Z,99324.63
2022-10-06T13:42:02.566Z,99321.97
2022-10-06T13:43:05.147Z,99327.81
2022-10-06T13:44:19.449Z,99326.06
2022-10-06T13:45:23.606Z,99331.53
2022-10-06T13:46:29.913Z,99322.78
2022-10-06T13:47:33.703Z,99326.38
2022-10-06T13:48:43.066Z,99322.37
2022-10-06T13:49:56.142Z,99318.03
2022-10-06T13:52:17.571Z,99317.59
2022-10-06T13:53:31.711Z,99318.44
2022-10-06T13:54:49.720Z,99324.41
2022-10-06T13:55:53.543Z,99332.22
2022-10-06T13:56:56.326Z,99330.84
2022-10-06T13:58:02.029Z,99322.34
2022-10-06T13:59:31.222Z,99325.41
2022-10-06T14:00:46.264Z,99321.06
2022-10-06T14:01:48.902Z,99318.66
2022-10-06T14:02:55.579Z,99321.47
2022-10-06T14:04:21.150Z,99321.28
2022-10-06T14:05:44.665Z,99325.22
2022-10-06T14:07:06.163Z,99328.16
2022-10-06T14:08:11.730Z,99327.28
2022-10-06T14:09:22.908Z,99328.75
2022-10-06T14:10:31.797Z,99340.13
2022-10-06T14:11:34.695Z,99328.38
2022-10-06T14:12:44.524Z,99332.72
2022-10-06T14:13:55.508Z,99337.44
2022-10-06T14:14:58.418Z,99333.69
2022-10-06T14:16:07.138Z,99333.59
2022-10-06T14:17:24.406Z,99334.88
2022-10-06T14:18:47.071Z,99341.03
2022-10-06T14:19:49.903Z,99336.41
2022-10-06T14:20:55.726Z,99334.28
2022-10-06T14:21:58.463Z,99334.19
2022-10-06T14:23:01.003Z,99347.25
2022-10-06T14:24:26.257Z,99340.00
2022-10-06T14:25:28.909Z,99338.44
2022-10-06T14:26:36.612Z,99344.00
2022-10-06T14:27:39.563Z,99342.44
2022-10-06T14:28:48.447Z,99339.44
2022-10-06T14:29:51.187Z,99348.78
2022-10-06T14:30:54.362Z,99344.41
2022-10-06T14:32:08.456Z,99347.41
2022-10-06T14:33:11.472Z,99357.41
2022-10-06T14:34:16.599Z,99354.22
2022-10-06T14:35:19.313Z,99352.72
2022-10-06T14:36:27.596Z,99348.75
2022-10-06T14:37:30.202Z,99350.31
2022-10-06T14:38:33.490Z,99344.66
2022-10-06T14:39:36.126Z,99349.09
2022-10-06T14:40:42.424Z,99346.69
2022-10-06T14:41:45.847Z,99358.75
2022-10-06T14:44:06.305Z,99357.19
2022-10-06T14:45:09.487Z,99350.78
2022-10-06T14:46:12.226Z,99360.94
2022-10-06T14:47:14.791Z,99352.44
2022-10-06T14:48:18.294Z,99361.13
2022-10-06T14:49:21.661Z,99363.50
2022-10-06T14:50:24.493Z,99358.94
2022-10-06T14:51:28.590Z,99360.44
2022-10-06T14:52:31.916Z,99364.50
2022-10-06T14:53:34.792Z,99358.44
2022-10-06T14:54:38.065Z,99361.63
2022-10-06T14:55:40.768Z,99363.03
2022-10-06T14:56:43.391Z,99353.69
2022-10-06T14:57:45.943Z,99362.72
2022-10-06T14:58:50.065Z,99372.94
2022-10-06T14:59:52.881Z,99365.72
2022-10-06T15:00:55.519Z,99368.22
2022-10-06T15:01:58.113Z,99360.50
2022-10-06T15:03:00.919Z,99367.25
2022-10-06T15:04:09.473Z,99367.91
2022-10-06T15:05:12.287Z,99374.72
2022-10-06T15:06:33.192Z,99373.06
2022-10-06T15:07:54.492Z,99369.88
2022-10-06T15:08:59.032Z,99374.84
2022-10-06T15:10:03.731Z,99370.13
2022-10-06T15:11:06.791Z,99369.41
2022-10-06T15:12:09.591Z,99368.19
2022-10-06T15:13:12.285Z,99362.75
2022-10-06T15:14:15.512Z,99367.41
2022-10-06T15:15:21.241Z,99360.94
2022-10-06T15:16:24.562Z,99368.03
2022-10-06T15:17:27.230Z,99369.69
2022-10-06T15:18:30.328Z,99372.50
2022-10-06T15:19:34.272Z,99367.56
2022-10-06T15:20:36.862Z,99373.19
2022-10-06T15:21:41.115Z,99381.84
2022-10-06T15:22:44.853Z,99379.16
2022-10-06T15:23:50.590Z,99381.03
2022-10-06T15:24:53.161Z,99377.47
2022-10-06T15:26:14.499Z,99381.06
2022-10-06T15:27:36.334Z,99386.06
2022-10-06T15:28:57.629Z,99385.94
2022-10-06T15:30:00.387Z,99380.00
2022-10-06T15:31:03.065Z,99382.97
2022-10-06T15:32:06.776Z,99381.75
2022-10-06T15:33:09.692Z,99379.53
2022-10-06T15:34:14.188Z,99384.69
2022-10-06T15:35:16.748Z,99379.38
2022-10-06T15:36:22.332Z,99392.97
2022-10-06T15:37:24.983Z,99377.69
2022-10-06T15:38:29.391Z,99384.53
2022-10-06T15:39:35.703Z,99381.38